createdAt,value
2023-01-31T00:00:07.579Z,9.747521
2023-01-31T00:01:07.565Z,9.747521
2023-01-31T00:02:07.624Z,9.747521
2023-01-31T00:03:07.573Z,9.747521
2023-01-31T00:04:07.580Z,9.747521
2023-01-31T00:05:07.526Z,9.747521
2023-01-31T00:06:07.527Z,9.747521
2023-01-31T00:07:07.542Z,9.747521
2023-01-31T00:08:07.515Z,9.747521
2023-01-31T00:09:07.519Z,9.747521
2023-01-31T00:10:07.501Z,9.747521
2023-01-31T00:11:07.494Z,9.747521
2023-01-31T00:12:07.517Z,9.747521
2023-01-31T00:13:07.469Z,9.747521
2023-01-31T00:14:07.478Z,9.747309
2023-01-31T00:15:07.455Z,9.747108
2023-01-31T00:16:07.489Z,9.747183
2023-01-31T00:17:07.468Z,9.747330
2023-01-31T00:18:07.432Z,9.747295
2023-01-31T00:19:07.426Z,9.747319
2023-01-31T00:20:07.419Z,9.747185
2023-01-31T00:21:07.408Z,9.747158
2023-01-31T00:22:07.399Z,9.747193
2023-01-31T00:23:07.453Z,9.747205
2023-01-31T00:24:07.387Z,9.747350
2023-01-31T00:25:07.388Z,9.747337
2023-01-31T00:26:07.392Z,9.747306
2023-01-31T00:27:07.363Z,9.747335
2023-01-31T00:28:07.383Z,9.747337
2023-01-31T00:29:07.350Z,9.747340
2023-01-31T00:30:07.338Z,9.747437
2023-01-31T00:31:07.358Z,9.747387
2023-01-31T00:32:07.469Z,9.747355
2023-01-31T00:33:07.341Z,9.747308
2023-01-31T00:34:07.307Z,9.747357
2023-01-31T00:35:07.299Z,9.747366
2023-01-31T00:36:07.293Z,9.747377
2023-01-31T00:37:07.282Z,9.747334
2023-01-31T00:38:07.300Z,9.747380
2023-01-31T00:39:07.271Z,9.747382
2023-01-31T00:40:07.265Z,9.747358
2023-01-31T00:41:07.263Z,9.747330
2023-01-31T00:42:07.244Z,9.747348
2023-01-31T00:43:07.286Z,9.747366
2023-01-31T00:44:07.244Z,9.747346
2023-01-31T00:45:07.238Z,9.747232
2023-01-31T00:46:07.215Z,9.747263
2023-01-31T00:47:07.240Z,9.747300
2023-01-31T00:48:07.226Z,9.747337
2023-01-31T00:49:07.200Z,9.747361
2023-01-31T00:50:07.185Z,9.747390
2023-01-31T00:51:07.187Z,9.747399
2023-01-31T00:52:07.222Z,9.747392
2023-01-31T00:53:07.188Z,9.747388
2023-01-31T00:54:07.155Z,9.747402
2023-01-31T00:55:07.148Z,9.747349
2023-01-31T00:56:07.172Z,9.747293
2023-01-31T00:57:07.142Z,9.747113
2023-01-31T00:58:07.153Z,9.747213
2023-01-31T00:59:07.121Z,9.747218
2023-01-31T01:00:07.133Z,9.747159
2023-01-31T01:01:07.123Z,9.747136
2023-01-31T01:02:07.144Z,9.747263
2023-01-31T01:03:07.179Z,9.747332
2023-01-31T01:04:07.087Z,9.747230
2023-01-31T01:05:07.092Z,9.747292
2023-01-31T01:06:07.077Z,9.747292
2023-01-31T01:07:07.054Z,9.747292
2023-01-31T01:08:07.078Z,9.747292
2023-01-31T01:09:07.043Z,9.747249
2023-01-31T01:10:07.036Z,9.747345
2023-01-31T01:11:07.032Z,9.747345
2023-01-31T01:12:07.029Z,9.747345
2023-01-31T01:13:07.042Z,9.747345
2023-01-31T01:14:07.008Z,9.747345
2023-01-31T01:15:06.995Z,9.747345
2023-01-31T01:16:07.080Z,9.747345
2023-01-31T01:17:06.982Z,9.747219
2023-01-31T01:18:06.998Z,9.747244
2023-01-31T01:19:06.960Z,9.747266
2023-01-31T01:20:06.954Z,9.747394
2023-01-31T01:21:06.962Z,9.747249
2023-01-31T01:22:06.944Z,9.747244
2023-01-31T01:23:06.968Z,9.747199
2023-01-31T01:24:06.924Z,9.747182
2023-01-31T01:25:06.932Z,9.747176
2023-01-31T01:26:06.921Z,9.747272
2023-01-31T01:27:06.910Z,9.747180
2023-01-31T01:28:06.925Z,9.747184
2023-01-31T01:29:06.927Z,9.747458
2023-01-31T01:30:06.936Z,9.747306
2023-01-31T01:31:07.004Z,9.747405
2023-01-31T01:32:06.889Z,9.747446
2023-01-31T01:33:06.919Z,9.747499
2023-01-31T01:34:06.891Z,9.747543
2023-01-31T01:35:06.910Z,9.747721
2023-01-31T01:36:06.836Z,9.747708
2023-01-31T01:37:06.831Z,9.747637
2023-01-31T01:38:06.832Z,9.747638
2023-01-31T01:39:06.841Z,9.747569
2023-01-31T01:40:06.803Z,9.747573
2023-01-31T01:41:06.794Z,9.747539
2023-01-31T01:42:06.988Z,9.747545
2023-01-31T01:43:06.801Z,9.747496
2023-01-31T01:44:06.795Z,9.747479
2023-01-31T01:45:06.769Z,9.747465
2023-01-31T01:46:06.825Z,9.747483
2023-01-31T01:47:06.755Z,9.747445
2023-01-31T01:48:06.746Z,9.747441
2023-01-31T01:49:06.766Z,9.747428
2023-01-31T01:50:06.728Z,9.747437
2023-01-31T01:51:06.750Z,9.747401
2023-01-31T01:52:06.718Z,9.747314
2023-01-31T01:53:06.709Z,9.747306
2023-01-31T01:54:06.739Z,9.747333
2023-01-31T01:55:06.704Z,9.747333
2023-01-31T01:56:06.686Z,9.747342
2023-01-31T01:57:06.692Z,9.747366
2023-01-31T01:58:06.670Z,9.747366
2023-01-31T01:59:06.701Z,9.747338
2023-01-31T02:00:06.657Z,9.747364
2023-01-31T02:01:06.717Z,9.747460
2023-01-31T02:02:06.694Z,9.747541
2023-01-31T02:03:06.632Z,9.747562
2023-01-31T02:04:06.656Z,9.747613
2023-01-31T02:05:06.616Z,9.747408
2023-01-31T02:06:06.628Z,9.747484
2023-01-31T02:07:06.625Z,9.747419
2023-01-31T02:08:06.620Z,9.747435
2023-01-31T02:09:06.617Z,9.747554
2023-01-31T02:10:06.579Z,9.747454
2023-01-31T02:11:06.578Z,9.747569
2023-01-31T02:12:06.563Z,9.747682
2023-01-31T02:13:06.555Z,9.747604
2023-01-31T02:14:06.577Z,9.747509
2023-01-31T02:15:06.555Z,9.747527
2023-01-31T02:16:06.655Z,9.747437
2023-01-31T02:17:06.527Z,9.747396
2023-01-31T02:18:06.517Z,9.747410
2023-01-31T02:19:06.537Z,9.747473
2023-01-31T02:20:06.502Z,9.747458
2023-01-31T02:21:06.494Z,9.747484
2023-01-31T02:22:06.486Z,9.747379
2023-01-31T02:23:06.482Z,9.747317
2023-01-31T02:24:06.496Z,9.747340
2023-01-31T02:25:06.484Z,9.747369
2023-01-31T02:26:06.456Z,9.747376
2023-01-31T02:27:06.454Z,9.747437
2023-01-31T02:28:06.441Z,9.747463
2023-01-31T02:29:06.479Z,9.747391
2023-01-31T02:30:06.449Z,9.747554
2023-01-31T02:31:06.497Z,9.747410
2023-01-31T02:32:06.453Z,9.747357
2023-01-31T02:33:06.404Z,9.747252
2023-01-31T02:34:06.437Z,9.747338
2023-01-31T02:35:06.417Z,9.747370
2023-01-31T02:36:06.384Z,9.747317
2023-01-31T02:37:06.374Z,9.747294
2023-01-31T02:38:06.535Z,9.747499
2023-01-31T02:39:06.360Z,9.747333
2023-01-31T02:40:06.386Z,9.747514
2023-01-31T02:41:06.344Z,9.747414
2023-01-31T02:42:06.336Z,9.747479
2023-01-31T02:43:06.354Z,9.747177
2023-01-31T02:44:06.316Z,9.747441
2023-01-31T02:45:06.334Z,9.747371
2023-01-31T02:46:06.339Z,9.747423
2023-01-31T02:47:06.331Z,9.747276
2023-01-31T02:48:06.292Z,9.747156
2023-01-31T02:49:06.276Z,9.747353
2023-01-31T02:50:06.302Z,9.747584
2023-01-31T02:51:06.285Z,9.747520
2023-01-31T02:52:06.257Z,9.747367
2023-01-31T02:53:06.247Z,9.747280
2023-01-31T02:54:06.246Z,9.747361
2023-01-31T02:55:06.271Z,9.747342
2023-01-31T02:56:06.224Z,9.747288
2023-01-31T02:57:06.223Z,9.747287
2023-01-31T02:58:06.208Z,9.747306
2023-01-31T02:59:06.219Z,9.747439
2023-01-31T03:00:06.239Z,9.747475
2023-01-31T03:01:06.252Z,9.747456
2023-01-31T03:02:06.190Z,9.747584
2023-01-31T03:03:06.182Z,9.747414
2023-01-31T03:04:06.163Z,9.747331
2023-01-31T03:05:06.140Z,9.747396
2023-01-31T03:06:07.172Z,9.747419
2023-01-31T03:07:06.144Z,9.747321
2023-01-31T03:08:06.137Z,9.747359
2023-01-31T03:09:06.131Z,9.747402
2023-01-31T03:10:06.133Z,9.747428
2023-01-31T03:11:06.151Z,9.747371
2023-01-31T03:12:06.100Z,9.747364
2023-01-31T03:13:06.098Z,9.747421
2023-01-31T03:14:06.093Z,9.747401
2023-01-31T03:15:06.085Z,9.747388
2023-01-31T03:16:06.098Z,9.747366
2023-01-31T03:17:06.068Z,9.747419
2023-01-31T03:18:06.057Z,9.747419
2023-01-31T03:19:06.054Z,9.747409
2023-01-31T03:20:06.049Z,9.747335
2023-01-31T03:21:06.074Z,9.747315
2023-01-31T03:22:06.039Z,9.747375
2023-01-31T03:23:06.010Z,9.747351
2023-01-31T03:24:07.029Z,9.747305
2023-01-31T03:25:06.007Z,9.747420
2023-01-31T03:26:06.032Z,9.747363
2023-01-31T03:27:05.986Z,9.747339
2023-01-31T03:28:05.992Z,9.747351
2023-01-31T03:29:05.972Z,9.747438
2023-01-31T03:30:05.963Z,9.747364
2023-01-31T03:31:06.133Z,9.747459
2023-01-31T03:32:05.951Z,9.747411
2023-01-31T03:33:05.945Z,9.747380
2023-01-31T03:34:05.937Z,9.747384
2023-01-31T03:35:05.932Z,9.747460
2023-01-31T03:36:05.952Z,9.747375
2023-01-31T03:37:05.918Z,9.747358
2023-01-31T03:38:05.902Z,9.747433
2023-01-31T03:39:05.897Z,9.747382
2023-01-31T03:40:05.913Z,9.747315
2023-01-31T03:41:05.880Z,9.747370
2023-01-31T03:42:06.202Z,9.747429
2023-01-31T03:43:05.870Z,9.747461
2023-01-31T03:44:05.863Z,9.747422
2023-01-31T03:45:05.850Z,9.747480
2023-01-31T03:46:05.861Z,9.747480
2023-01-31T03:47:05.866Z,9.747377
2023-01-31T03:48:05.824Z,9.747405
2023-01-31T03:49:05.818Z,9.747486
2023-01-31T03:50:05.830Z,9.747463
2023-01-31T03:51:05.806Z,9.747421
2023-01-31T03:52:05.831Z,9.747430
2023-01-31T03:53:05.816Z,9.747370
2023-01-31T03:54:05.795Z,9.747470
2023-01-31T03:55:05.778Z,9.747429
2023-01-31T03:56:05.793Z,9.747441
2023-01-31T03:57:05.792Z,9.747393
2023-01-31T03:58:05.750Z,9.747434
2023-01-31T03:59:05.746Z,9.747467
2023-01-31T04:00:05.739Z,9.747494
2023-01-31T04:01:06.671Z,9.747561
2023-01-31T04:02:05.744Z,9.747492
2023-01-31T04:03:05.739Z,9.747490
2023-01-31T04:04:05.709Z,9.747437
2023-01-31T04:05:05.695Z,9.747402
2023-01-31T04:06:05.690Z,9.747399
2023-01-31T04:07:05.713Z,9.747336
2023-01-31T04:08:05.677Z,9.747427
2023-01-31T04:09:05.670Z,9.747398
2023-01-31T04:10:05.666Z,9.747419
2023-01-31T04:11:05.653Z,9.747398
2023-01-31T04:12:05.677Z,9.747492
2023-01-31T04:13:05.644Z,9.747412
2023-01-31T04:14:05.635Z,9.747346
2023-01-31T04:15:05.640Z,9.747395
2023-01-31T04:16:05.682Z,9.747401
2023-01-31T04:17:05.644Z,9.747472
2023-01-31T04:18:05.612Z,9.747466
2023-01-31T04:19:05.599Z,9.747375
2023-01-31T04:20:06.338Z,9.747462
2023-01-31T04:21:05.580Z,9.747463
2023-01-31T04:22:05.603Z,9.747452
2023-01-31T04:23:05.594Z,9.747404
2023-01-31T04:24:05.562Z,9.747450
2023-01-31T04:25:05.556Z,9.747539
2023-01-31T04:26:05.558Z,9.747390
2023-01-31T04:27:05.583Z,9.747335
2023-01-31T04:28:05.540Z,9.747416
2023-01-31T04:29:05.533Z,9.747476
2023-01-31T04:30:05.531Z,9.747387
2023-01-31T04:31:05.617Z,9.747480
2023-01-31T04:32:05.570Z,9.747501
2023-01-31T04:33:05.514Z,9.747390
2023-01-31T04:34:05.498Z,9.747339
2023-01-31T04:35:05.503Z,9.747486
2023-01-31T04:36:05.481Z,9.747460
2023-01-31T04:37:05.527Z,9.747324
2023-01-31T04:38:05.466Z,9.747390
2023-01-31T04:39:05.476Z,9.747427
2023-01-31T04:40:05.450Z,9.747468
2023-01-31T04:41:05.493Z,9.747461
2023-01-31T04:42:05.462Z,9.747406
2023-01-31T04:43:05.434Z,9.747407
2023-01-31T04:44:05.426Z,9.747397
2023-01-31T04:45:05.412Z,9.747474
2023-01-31T04:46:05.415Z,9.747479
2023-01-31T04:47:05.422Z,9.747478
2023-01-31T04:48:05.390Z,9.747403
2023-01-31T04:49:05.422Z,9.747449
2023-01-31T04:50:05.380Z,9.747409
2023-01-31T04:51:05.371Z,9.747317
2023-01-31T04:52:05.381Z,9.747385
2023-01-31T04:53:05.357Z,9.747419
2023-01-31T04:54:05.336Z,9.747355
2023-01-31T04:55:05.361Z,9.747454
2023-01-31T04:56:05.322Z,9.747458
2023-01-31T04:57:37.267Z,9.747440
2023-01-31T04:58:06.768Z,9.747500
2023-01-31T04:59:06.408Z,9.747493
2023-01-31T05:00:05.317Z,9.747464
2023-01-31T05:01:05.363Z,9.747404
2023-01-31T05:02:05.284Z,9.747429
2023-01-31T05:03:05.373Z,9.747419
2023-01-31T05:04:05.806Z,9.747379
2023-01-31T05:05:05.762Z,9.747298
2023-01-31T05:06:05.722Z,9.747304
2023-01-31T05:07:05.581Z,9.747334
2023-01-31T05:08:05.697Z,9.747308
2023-01-31T05:09:05.494Z,9.747340
2023-01-31T05:10:05.286Z,9.747363
2023-01-31T05:11:05.320Z,9.747391
2023-01-31T05:12:05.326Z,9.747304
2023-01-31T05:13:05.332Z,9.747372
2023-01-31T05:14:05.195Z,9.747347
2023-01-31T05:15:05.706Z,9.747364
2023-01-31T05:16:05.747Z,9.747417
2023-01-31T05:17:05.725Z,9.747289
2023-01-31T05:18:05.649Z,9.747437
2023-01-31T05:19:05.473Z,9.747342
2023-01-31T05:20:05.433Z,9.747422
2023-01-31T05:21:05.261Z,9.747294
2023-01-31T05:22:05.226Z,9.747259
2023-01-31T05:23:05.196Z,9.747355
2023-01-31T05:24:05.137Z,9.747431
2023-01-31T05:25:05.140Z,9.747428
2023-01-31T05:26:05.096Z,9.747388
2023-01-31T05:27:05.144Z,9.747296
2023-01-31T05:28:05.121Z,9.747286
2023-01-31T05:29:05.087Z,9.747169
2023-01-31T05:30:05.095Z,9.747267
2023-01-31T05:31:05.074Z,9.747239
2023-01-31T05:32:05.609Z,9.747309
2023-01-31T05:33:05.113Z,9.747449
2023-01-31T05:34:05.053Z,9.747342
2023-01-31T05:35:05.041Z,9.747376
2023-01-31T05:36:05.066Z,9.747244
2023-01-31T05:37:05.065Z,9.747381
2023-01-31T05:38:05.076Z,9.747287
2023-01-31T05:39:05.073Z,9.747490
2023-01-31T05:40:05.039Z,9.747526
2023-01-31T05:41:05.000Z,9.747439
2023-01-31T05:42:05.009Z,9.747501
2023-01-31T05:43:05.025Z,9.747423
2023-01-31T05:44:04.969Z,9.747418
2023-01-31T05:45:05.019Z,9.747368
2023-01-31T05:46:05.019Z,9.747266
2023-01-31T05:47:04.948Z,9.747320
2023-01-31T05:48:04.983Z,9.747408
2023-01-31T05:49:04.956Z,9.747316
2023-01-31T05:50:04.949Z,9.747443
2023-01-31T05:51:04.916Z,9.747495
2023-01-31T05:52:04.915Z,9.747302
2023-01-31T05:53:04.957Z,9.747286
2023-01-31T05:54:04.907Z,9.747258
2023-01-31T05:55:04.898Z,9.747335
2023-01-31T05:56:04.926Z,9.747373
2023-01-31T05:57:04.911Z,9.747333
2023-01-31T05:58:04.960Z,9.747396
2023-01-31T05:59:05.017Z,9.747420
2023-01-31T06:00:04.886Z,9.747374
2023-01-31T06:01:04.889Z,9.747166
2023-01-31T06:02:04.861Z,9.747181
2023-01-31T06:03:04.874Z,9.747276
2023-01-31T06:04:04.858Z,9.747313
2023-01-31T06:05:04.843Z,9.747466
2023-01-31T06:06:04.802Z,9.747354
2023-01-31T06:07:04.794Z,9.747217
2023-01-31T06:08:04.815Z,9.747306
2023-01-31T06:09:04.840Z,9.747493
2023-01-31T06:10:04.819Z,9.747453
2023-01-31T06:11:04.830Z,9.747279
2023-01-31T06:12:04.774Z,9.747091
2023-01-31T06:13:04.784Z,9.747197
2023-01-31T06:14:04.787Z,9.747335
2023-01-31T06:15:04.755Z,9.747369
2023-01-31T06:16:04.727Z,9.747344
2023-01-31T06:17:04.727Z,9.747346
2023-01-31T06:18:04.717Z,9.747239
2023-01-31T06:19:04.756Z,9.747216
2023-01-31T06:20:04.719Z,9.747522
2023-01-31T06:21:04.735Z,9.747285
2023-01-31T06:22:04.706Z,9.747336
2023-01-31T06:23:04.700Z,9.747332
2023-01-31T06:24:04.715Z,9.747257
2023-01-31T06:25:04.711Z,9.747252
2023-01-31T06:26:04.669Z,9.747240
2023-01-31T06:27:04.697Z,9.747358
2023-01-31T06:28:04.651Z,9.747418
2023-01-31T06:29:04.784Z,9.747371
2023-01-31T06:30:04.655Z,9.747310
2023-01-31T06:31:04.684Z,9.747345
2023-01-31T06:32:04.629Z,9.747192
2023-01-31T06:33:04.609Z,9.747272
2023-01-31T06:34:04.652Z,9.747359
2023-01-31T06:35:04.605Z,9.747363
2023-01-31T06:36:04.570Z,9.747326
2023-01-31T06:37:04.584Z,9.747331
2023-01-31T06:38:04.666Z,9.747417
2023-01-31T06:39:04.620Z,9.747340
2023-01-31T06:40:04.560Z,9.747389
2023-01-31T06:41:04.550Z,9.747349
2023-01-31T06:42:04.530Z,9.747447
2023-01-31T06:43:04.590Z,9.747384
2023-01-31T06:44:04.525Z,9.747422
2023-01-31T06:45:04.545Z,9.747568
2023-01-31T06:46:04.580Z,9.747553
2023-01-31T06:47:04.507Z,9.747396
2023-01-31T06:48:04.520Z,9.747250
2023-01-31T06:49:04.523Z,9.747572
2023-01-31T06:50:04.521Z,9.747360
2023-01-31T06:51:04.453Z,9.747314
2023-01-31T06:52:04.440Z,9.747499
2023-01-31T06:53:04.497Z,9.747233
2023-01-31T06:54:04.528Z,9.747268
2023-01-31T06:55:04.469Z,9.747272
2023-01-31T06:56:04.415Z,9.747288
2023-01-31T06:57:04.428Z,9.747297
2023-01-31T06:58:04.421Z,9.747340
2023-01-31T06:59:04.398Z,9.747192
2023-01-31T07:00:04.422Z,9.747176
2023-01-31T07:01:04.384Z,9.747208
2023-01-31T07:02:04.413Z,9.747361
2023-01-31T07:03:04.470Z,9.747466
2023-01-31T07:04:04.383Z,9.747263
2023-01-31T07:05:04.412Z,9.747417
2023-01-31T07:06:04.358Z,9.747539
2023-01-31T07:07:04.386Z,9.747351
2023-01-31T07:08:04.350Z,9.747339
2023-01-31T07:09:04.379Z,9.747394
2023-01-31T07:10:04.385Z,9.747420
2023-01-31T07:11:04.330Z,9.747250
2023-01-31T07:12:04.304Z,9.747396
2023-01-31T07:13:04.293Z,9.747499
2023-01-31T07:14:04.308Z,9.747304
2023-01-31T07:15:04.363Z,9.747239
2023-01-31T07:16:04.273Z,9.747287
2023-01-31T07:17:05.284Z,9.747440
2023-01-31T07:18:04.274Z,9.747448
2023-01-31T07:19:04.259Z,9.747403
2023-01-31T07:20:04.300Z,9.747366
2023-01-31T07:21:04.295Z,9.747333
2023-01-31T07:22:04.265Z,9.747449
2023-01-31T07:23:04.218Z,9.747425
2023-01-31T07:24:04.240Z,9.747439
2023-01-31T07:25:04.227Z,9.747449
2023-01-31T07:26:04.242Z,9.747466
2023-01-31T07:27:04.222Z,9.747845
2023-01-31T07:28:04.192Z,9.747730
2023-01-31T07:29:04.183Z,9.747513
2023-01-31T07:30:04.190Z,9.747478
2023-01-31T07:31:04.270Z,9.747154
2023-01-31T07:32:04.166Z,9.747190
2023-01-31T07:33:04.177Z,9.747211
2023-01-31T07:34:04.161Z,9.747155
2023-01-31T07:35:04.205Z,9.747560
2023-01-31T07:36:04.160Z,9.747109
2023-01-31T07:37:04.125Z,9.747083
2023-01-31T07:38:04.132Z,9.746783
2023-01-31T07:39:04.121Z,9.746999
2023-01-31T07:40:04.100Z,9.747170
2023-01-31T07:41:04.164Z,9.746880
2023-01-31T07:42:04.090Z,9.747255
2023-01-31T07:43:04.071Z,9.747260
2023-01-31T07:44:04.098Z,9.747418
2023-01-31T07:45:20.878Z,9.747249
2023-01-31T07:46:06.114Z,9.747433
2023-01-31T07:47:04.053Z,9.747243
2023-01-31T07:48:04.115Z,9.747121
2023-01-31T07:49:04.039Z,9.747357
2023-01-31T07:50:05.022Z,9.747231
2023-01-31T07:51:04.079Z,9.747316
2023-01-31T07:52:04.035Z,9.747497
2023-01-31T07:53:04.048Z,9.747419
2023-01-31T07:54:04.013Z,9.747507
2023-01-31T07:55:03.978Z,9.747775
2023-01-31T07:56:04.044Z,9.747524
2023-01-31T07:57:03.987Z,9.746970
2023-01-31T07:58:04.009Z,9.747489
2023-01-31T07:59:03.969Z,9.747268
2023-01-31T08:00:03.969Z,9.747811
2023-01-31T08:01:04.003Z,9.747275
2023-01-31T08:02:03.941Z,9.746818
2023-01-31T08:03:03.931Z,9.747019
2023-01-31T08:04:19.392Z,9.747233
2023-01-31T08:05:06.003Z,9.747412
2023-01-31T08:06:03.941Z,9.747431
2023-01-31T08:07:03.925Z,9.747309
2023-01-31T08:08:03.888Z,9.747245
2023-01-31T08:09:03.914Z,9.747142
2023-01-31T08:10:03.880Z,9.747103
2023-01-31T08:11:03.913Z,9.747250
2023-01-31T08:12:03.859Z,9.747203
2023-01-31T08:13:03.863Z,9.747369
2023-01-31T08:14:03.893Z,9.747240
2023-01-31T08:15:04.367Z,9.747174
2023-01-31T08:16:03.917Z,9.747063
2023-01-31T08:17:03.874Z,9.747090
2023-01-31T08:18:06.186Z,9.747155
2023-01-31T08:19:04.817Z,9.747237
2023-01-31T08:20:03.790Z,9.747358
2023-01-31T08:21:03.839Z,9.747238
2023-01-31T08:22:03.777Z,9.747358
2023-01-31T08:23:03.783Z,9.747340
2023-01-31T08:24:03.779Z,9.747284
2023-01-31T08:25:03.771Z,9.747328
2023-01-31T08:26:03.785Z,9.747186
2023-01-31T08:27:03.783Z,9.747249
2023-01-31T08:28:03.788Z,9.747245
2023-01-31T08:29:03.772Z,9.747231
2023-01-31T08:30:03.755Z,9.747266
2023-01-31T08:31:09.149Z,9.747216
2023-01-31T08:32:05.804Z,9.747376
2023-01-31T08:33:03.693Z,9.747256
2023-01-31T08:34:03.702Z,9.747156
2023-01-31T08:35:03.734Z,9.746928
2023-01-31T08:36:03.694Z,9.747038
2023-01-31T08:37:03.724Z,9.747011
2023-01-31T08:38:15.689Z,9.747054
2023-01-31T08:39:05.768Z,9.747015
2023-01-31T08:40:03.647Z,9.747125
2023-01-31T08:41:03.664Z,9.747186
2023-01-31T08:42:03.682Z,9.747213
2023-01-31T08:43:03.643Z,9.747301
2023-01-31T08:44:04.836Z,9.747174
2023-01-31T08:45:04.640Z,9.747204
2023-01-31T08:46:03.610Z,9.747332
2023-01-31T08:47:03.715Z,9.747291
2023-01-31T08:48:03.595Z,9.747130
2023-01-31T08:49:03.596Z,9.747149
2023-01-31T08:50:03.569Z,9.747052
2023-01-31T08:51:03.671Z,9.747312
2023-01-31T08:52:03.602Z,9.747701
2023-01-31T08:53:03.549Z,9.747637
2023-01-31T08:54:03.561Z,9.747746
2023-01-31T08:55:03.531Z,9.747239
2023-01-31T08:56:03.547Z,9.746908
2023-01-31T08:57:03.587Z,9.747521
2023-01-31T08:58:03.516Z,9.747821
2023-01-31T08:59:03.507Z,9.747447
2023-01-31T09:00:03.497Z,9.747535
2023-01-31T09:01:03.487Z,9.747264
2023-01-31T09:02:03.681Z,9.747542
2023-01-31T09:03:03.527Z,9.747348
2023-01-31T09:04:03.476Z,9.747451
2023-01-31T09:05:03.453Z,9.747379
2023-01-31T09:06:03.461Z,9.747314
2023-01-31T09:07:03.477Z,9.747415
2023-01-31T09:08:03.445Z,9.747061
2023-01-31T09:09:03.530Z,9.747229
2023-01-31T09:10:03.473Z,9.747435
2023-01-31T09:11:03.446Z,9.747326
2023-01-31T09:12:03.495Z,9.747498
2023-01-31T09:13:03.411Z,9.747249
2023-01-31T09:14:03.399Z,9.747391
2023-01-31T09:15:03.389Z,9.747482
2023-01-31T09:16:04.054Z,9.747381
2023-01-31T09:17:03.454Z,9.747450
2023-01-31T09:18:03.389Z,9.747517
2023-01-31T09:19:03.365Z,9.747273
2023-01-31T09:20:03.369Z,9.747296
2023-01-31T09:21:03.397Z,9.747535
2023-01-31T09:22:03.381Z,9.747522
2023-01-31T09:23:03.352Z,9.747334
2023-01-31T09:24:03.332Z,9.747646
2023-01-31T09:25:03.360Z,9.747489
2023-01-31T09:26:03.392Z,9.747357
2023-01-31T09:27:03.300Z,9.747233
2023-01-31T09:28:03.302Z,9.747306
2023-01-31T09:29:03.317Z,9.747151
2023-01-31T09:30:03.314Z,9.747366
2023-01-31T09:31:03.456Z,9.747449
2023-01-31T09:32:03.280Z,9.747470
2023-01-31T09:33:03.294Z,9.747510
2023-01-31T09:34:03.299Z,9.747494
2023-01-31T09:35:03.245Z,9.747499
2023-01-31T09:36:03.306Z,9.747594
2023-01-31T09:37:03.269Z,9.747601
2023-01-31T09:38:03.216Z,9.747608
2023-01-31T09:39:03.218Z,9.747559
2023-01-31T09:40:03.220Z,9.747500
2023-01-31T09:41:03.300Z,9.747514
2023-01-31T09:42:03.269Z,9.747456
2023-01-31T09:43:03.201Z,9.747516
2023-01-31T09:44:03.197Z,9.747501
2023-01-31T09:45:03.202Z,9.747502
2023-01-31T09:46:03.215Z,9.747364
2023-01-31T09:47:03.236Z,9.747409
2023-01-31T09:48:03.188Z,9.747420
2023-01-31T09:49:03.163Z,9.747467
2023-01-31T09:50:03.127Z,9.747494
2023-01-31T09:51:03.404Z,9.747491
2023-01-31T09:52:03.104Z,9.747483
2023-01-31T09:53:03.108Z,9.747435
2023-01-31T09:54:03.100Z,9.747490
2023-01-31T09:55:03.185Z,9.747380
2023-01-31T09:56:03.142Z,9.747299
2023-01-31T09:57:03.094Z,9.747432
2023-01-31T09:58:03.061Z,9.747480
2023-01-31T09:59:03.062Z,9.747391
2023-01-31T10:00:03.055Z,9.747410
2023-01-31T10:01:03.086Z,9.747376
2023-01-31T10:02:03.095Z,9.747383
2023-01-31T10:03:03.023Z,9.747431
2023-01-31T10:04:03.078Z,9.747457
2023-01-31T10:05:03.017Z,9.747528
2023-01-31T10:06:03.005Z,9.747505
2023-01-31T10:07:03.015Z,9.747475
2023-01-31T10:08:02.986Z,9.747492
2023-01-31T10:09:02.979Z,9.747511
2023-01-31T10:10:02.979Z,9.747505
2023-01-31T10:11:03.003Z,9.747529
2023-01-31T10:12:02.991Z,9.747519
2023-01-31T10:13:02.949Z,9.747542
2023-01-31T10:14:02.944Z,9.747568
2023-01-31T10:15:02.941Z,9.747537
2023-01-31T10:16:02.931Z,9.747614
2023-01-31T10:17:03.011Z,9.747617
2023-01-31T10:18:02.919Z,9.747620
2023-01-31T10:19:02.907Z,9.747578
2023-01-31T10:20:02.912Z,9.747680
2023-01-31T10:21:05.067Z,9.747655
2023-01-31T10:22:03.947Z,9.747643
2023-01-31T10:23:02.884Z,9.747647
2023-01-31T10:24:03.868Z,9.747576
2023-01-31T10:25:02.880Z,9.747654
2023-01-31T10:26:02.875Z,9.747617
2023-01-31T10:27:02.877Z,9.747608
2023-01-31T10:28:02.875Z,9.747632
2023-01-31T10:29:02.829Z,9.747539
2023-01-31T10:30:02.827Z,9.747510
2023-01-31T10:31:02.866Z,9.747540
2023-01-31T10:32:02.933Z,9.747565
2023-01-31T10:33:03.814Z,9.747501
2023-01-31T10:34:02.787Z,9.747599
2023-01-31T10:35:02.808Z,9.747667
2023-01-31T10:36:02.775Z,9.747607
2023-01-31T10:37:02.810Z,9.747433
2023-01-31T10:38:02.762Z,9.747511
2023-01-31T10:39:02.776Z,9.747543
2023-01-31T10:40:02.767Z,9.747455
2023-01-31T10:41:02.747Z,9.747552
2023-01-31T10:42:02.759Z,9.747552
2023-01-31T10:43:02.726Z,9.747540
2023-01-31T10:44:02.716Z,9.747536
2023-01-31T10:45:02.731Z,9.747462
2023-01-31T10:46:02.737Z,9.747381
2023-01-31T10:47:02.738Z,9.747446
2023-01-31T10:48:03.685Z,9.747422
2023-01-31T10:49:02.694Z,9.747450
2023-01-31T10:50:02.739Z,9.747523
2023-01-31T10:51:02.696Z,9.747499
2023-01-31T10:52:02.756Z,9.747455
2023-01-31T10:53:02.708Z,9.747486
2023-01-31T10:54:02.659Z,9.747514
2023-01-31T10:55:02.672Z,9.747453
2023-01-31T10:56:02.645Z,9.747465
2023-01-31T10:57:34.548Z,9.747539
2023-01-31T10:58:02.611Z,9.747465
2023-01-31T10:59:02.599Z,9.747468
2023-01-31T11:00:02.610Z,9.747465
2023-01-31T11:01:02.622Z,9.747460
2023-01-31T11:02:02.592Z,9.747424
2023-01-31T11:03:02.594Z,9.747453
2023-01-31T11:04:02.566Z,9.747545
2023-01-31T11:05:02.558Z,9.747447
2023-01-31T11:06:02.554Z,9.747504
2023-01-31T11:07:02.559Z,9.747486
2023-01-31T11:08:02.557Z,9.747429
2023-01-31T11:09:02.529Z,9.747489
2023-01-31T11:10:02.518Z,9.747460
2023-01-31T11:11:02.525Z,9.747495
2023-01-31T11:12:02.546Z,9.747518
2023-01-31T11:13:02.528Z,9.747529
2023-01-31T11:14:02.503Z,9.747494
2023-01-31T11:15:02.486Z,9.747396
2023-01-31T11:16:02.474Z,9.747422
2023-01-31T11:17:02.478Z,9.747500
2023-01-31T11:18:03.282Z,9.747506
2023-01-31T11:19:02.452Z,9.747483
2023-01-31T11:20:02.461Z,9.747517
2023-01-31T11:21:02.433Z,9.747594
2023-01-31T11:22:03.434Z,9.747580
2023-01-31T11:23:02.455Z,9.747538
2023-01-31T11:24:02.417Z,9.747562
2023-01-31T11:25:02.416Z,9.747427
2023-01-31T11:26:02.421Z,9.747504
2023-01-31T11:27:02.501Z,9.747416
2023-01-31T11:28:02.417Z,9.747409
2023-01-31T11:29:02.390Z,9.747467
2023-01-31T11:30:02.420Z,9.747477
2023-01-31T11:31:02.385Z,9.747504
2023-01-31T11:32:02.421Z,9.747423
2023-01-31T11:33:02.384Z,9.747359
2023-01-31T11:34:02.392Z,9.747467
2023-01-31T11:35:02.345Z,9.747169
2023-01-31T11:36:02.351Z,9.747272
2023-01-31T11:37:02.331Z,9.747259
2023-01-31T11:38:02.365Z,9.747289
2023-01-31T11:39:02.340Z,9.747375
2023-01-31T11:40:02.308Z,9.747438
2023-01-31T11:41:02.305Z,9.747422
2023-01-31T11:42:02.305Z,9.747282
2023-01-31T11:43:02.326Z,9.747382
2023-01-31T11:44:02.298Z,9.747380